Chiricana — 3EKU3 — position and weather

sailwx.info

Track history (hours):
 
Tides and Currents Weather Stations Pressure Air Temp Water Temp Dewpoint Dewpoint Depression Visibility Wind Speed Wind Dir Waves Ship Positions

Chiricana

Last reported at 2015-Apr-19 00:34 UTC. Time now 2015-Apr-27 20:46 UTC.
Position N 01°57' E 102°16'.
Warning: this ship's position is 8 days out of date.

Length 300 m; draft 13.8 m.

Type: Ship (hazmat cat A). MMSI: 372829000.

Date/timePositionNaut miles runAvg speedWind from/ knotsBaromVisibWave heightAir tempDewpointWater temp
2015-Apr-19 00:34N 01°57' E 102°16'1919.0
2015-Apr-18 23:33N 01°49' E 102°33'2219.7
2015-Apr-18 22:28N 01°38' E 102°52'5719.4
2015-Apr-18 19:33N 01°10' E 103°41'1111.6
2015-Apr-18 18:34N 01°13' E 103°52'4 3.5
2015-Apr-18 17:34N 01°16' E 103°51'0 0.4
2015-Apr-18 16:31N 01°16' E 103°51'0 0.0
2015-Apr-18 15:32N 01°16' E 103°51'0 0.0
2015-Apr-18 14:26N 01°16' E 103°51'0 0.0
2015-Apr-18 13:26N 01°16' E 103°51'0 0.0
2015-Apr-18 11:14N 01°16' E 103°51'0 0.0
2015-Apr-18 10:32N 01°16' E 103°51'0 0.0
2015-Apr-18 09:14N 01°16' E 103°51'0 0.0
2015-Apr-18 07:32N 01°16' E 103°51'0 0.0
2015-Apr-18 06:20N 01°16' E 103°51'0 0.0
2015-Apr-18 05:32N 01°16' E 103°51'0 0.0
2015-Apr-18 04:11N 01°16' E 103°51'0 0.0
2015-Apr-18 03:17N 01°16' E 103°51'0 0.0
2015-Apr-18 02:32N 01°16' E 103°51'0 0.0
2015-Apr-18 01:23N 01°16' E 103°51'0 0.0
2015-Apr-18 00:29N 01°16' E 103°51'0 0.0
2015-Apr-17 23:32N 01°16' E 103°51'0 0.0
2015-Apr-17 22:32N 01°16' E 103°51'0 0.0
2015-Apr-17 21:26N 01°16' E 103°51'0 0.0
2015-Apr-17 20:32N 01°16' E 103°51'0 0.0
2015-Apr-17 19:20N 01°16' E 103°51'0 0.0
2015-Apr-17 18:23N 01°16' E 103°51'0 0.0
2015-Apr-17 17:32N 01°16' E 103°51'0 0.0
2015-Apr-17 16:20N 01°16' E 103°51'0 0.0
2015-Apr-17 15:33N 01°16' E 103°51'3 2.6
2015-Apr-17 14:33N 01°14' E 103°52'4 3.5
2015-Apr-17 13:33N 01°14' E 103°56'8 8.0
2015-Apr-17 12:33N 01°16' E 104°04'1111.0
2015-Apr-17 11:32N 01°18' E 104°15'  
2015-Apr-12 08:33N 22°12' E 114°31'2611.1
2015-Apr-12 06:11N 22°34' E 114°16'0 0.1
2015-Apr-12 05:05N 22°34' E 114°16'0 0.0
2015-Apr-12 02:22N 22°34' E 114°16'0 0.0
2015-Apr-11 22:16N 22°34' E 114°16'0 0.0
2015-Apr-11 20:10N 22°34' E 114°16'0 0.1
2015-Apr-11 19:22N 22°34' E 114°16'0 0.0
2015-Apr-11 13:25N 22°34' E 114°16'15 6.6
2015-Apr-11 11:06N 22°24' E 114°29'611.7
2015-Apr-11 10:34N 22°19' E 114°32'4 1.2
2015-Apr-11 07:32N 22°20' E 114°28'4 1.9
2015-Apr-11 05:33N 22°16' E 114°28'1312.5
2015-Apr-11 04:32N 22°07' E 114°18'14 9.7
2015-Apr-11 03:03N 22°16' E 114°06'4 7.7
2015-Apr-11 02:33N 22°20' E 114°07'0 0.1
2015-Apr-11 01:28N 22°20' E 114°08'0 0.0
2015-Apr-11 00:28N 22°20' E 114°08'0 0.0
2015-Apr-10 23:19N 22°20' E 114°08'0 0.0
2015-Apr-10 22:31N 22°20' E 114°08'0 0.0
2015-Apr-10 21:31N 22°20' E 114°08'0 0.0
2015-Apr-10 20:31N 22°20' E 114°08'0 0.0
2015-Apr-10 19:19N 22°20' E 114°08'0 0.0
2015-Apr-10 18:28N 22°20' E 114°08'0 0.0
2015-Apr-10 17:31N 22°20' E 114°08'0 0.0
2015-Apr-10 16:31N 22°20' E 114°08'0 0.0
2015-Apr-10 15:28N 22°20' E 114°08'0 0.0
2015-Apr-10 14:29N 22°20' E 114°08'0 0.0
2015-Apr-10 13:31N 22°20' E 114°08'0 0.0
2015-Apr-10 12:28N 22°20' E 114°08'0 0.0
2015-Apr-10 11:31N 22°20' E 114°08'0 0.0
2015-Apr-10 10:25N 22°20' E 114°08'0 0.0
2015-Apr-10 09:22N 22°20' E 114°08'0 0.0
2015-Apr-10 08:31N 22°20' E 114°08'0 0.0
2015-Apr-10 07:28N 22°20' E 114°08'0 0.0
2015-Apr-10 06:31N 22°20' E 114°08'3 3.0
2015-Apr-10 05:34N 22°17' E 114°06'10 9.9
2015-Apr-10 04:33N 22°10' E 114°13'9 8.9
2015-Apr-10 03:32N 22°08' E 114°23'1010.4
2015-Apr-10 02:33N 21°58' E 114°26'  
Track history (hours):
 
Tides and Currents Weather Stations Pressure Air Temp Water Temp Dewpoint Dewpoint Depression Visibility Wind Speed Wind Dir Waves Ship Positions

Chiricana

Last reported at 2015-Apr-19 00:34 UTC. Time now 2015-Apr-27 20:46 UTC.
Position N 01°57' E 102°16'.
Warning: this ship's position is 8 days out of date.

Length 300 m; draft 13.8 m.

Type: Ship (hazmat cat A). MMSI: 372829000.

Date/timePositionNaut miles runAvg speedWind from/ knotsBaromVisibWave heightAir tempDewpointWater temp
2015-Apr-19 00:34N 01°57' E 102°16'1919.0
2015-Apr-18 23:33N 01°49' E 102°33'2219.7
2015-Apr-18 22:28N 01°38' E 102°52'5719.4
2015-Apr-18 19:33N 01°10' E 103°41'1111.6
2015-Apr-18 18:34N 01°13' E 103°52'4 3.5
2015-Apr-18 17:34N 01°16' E 103°51'0 0.4
2015-Apr-18 16:31N 01°16' E 103°51'0 0.0
2015-Apr-18 15:32N 01°16' E 103°51'0 0.0
2015-Apr-18 14:26N 01°16' E 103°51'0 0.0
2015-Apr-18 13:26N 01°16' E 103°51'0 0.0
2015-Apr-18 11:14N 01°16' E 103°51'0 0.0
2015-Apr-18 10:32N 01°16' E 103°51'0 0.0
2015-Apr-18 09:14N 01°16' E 103°51'0 0.0
2015-Apr-18 07:32N 01°16' E 103°51'0 0.0
2015-Apr-18 06:20N 01°16' E 103°51'0 0.0
2015-Apr-18 05:32N 01°16' E 103°51'0 0.0
2015-Apr-18 04:11N 01°16' E 103°51'0 0.0
2015-Apr-18 03:17N 01°16' E 103°51'0 0.0
2015-Apr-18 02:32N 01°16' E 103°51'0 0.0
2015-Apr-18 01:23N 01°16' E 103°51'0 0.0
2015-Apr-18 00:29N 01°16' E 103°51'0 0.0
2015-Apr-17 23:32N 01°16' E 103°51'0 0.0
2015-Apr-17 22:32N 01°16' E 103°51'0 0.0
2015-Apr-17 21:26N 01°16' E 103°51'0 0.0
2015-Apr-17 20:32N 01°16' E 103°51'0 0.0
2015-Apr-17 19:20N 01°16' E 103°51'0 0.0
2015-Apr-17 18:23N 01°16' E 103°51'0 0.0
2015-Apr-17 17:32N 01°16' E 103°51'0 0.0
2015-Apr-17 16:20N 01°16' E 103°51'0 0.0
2015-Apr-17 15:33N 01°16' E 103°51'3 2.6
2015-Apr-17 14:33N 01°14' E 103°52'4 3.5
2015-Apr-17 13:33N 01°14' E 103°56'8 8.0
2015-Apr-17 12:33N 01°16' E 104°04'1111.0
2015-Apr-17 11:32N 01°18' E 104°15'  
2015-Apr-12 08:33N 22°12' E 114°31'2611.1
2015-Apr-12 06:11N 22°34' E 114°16'0 0.1
2015-Apr-12 05:05N 22°34' E 114°16'0 0.0
2015-Apr-12 02:22N 22°34' E 114°16'0 0.0
2015-Apr-11 22:16N 22°34' E 114°16'0 0.0
2015-Apr-11 20:10N 22°34' E 114°16'0 0.1
2015-Apr-11 19:22N 22°34' E 114°16'0 0.0
2015-Apr-11 13:25N 22°34' E 114°16'15 6.6
2015-Apr-11 11:06N 22°24' E 114°29'611.7
2015-Apr-11 10:34N 22°19' E 114°32'4 1.2
2015-Apr-11 07:32N 22°20' E 114°28'4 1.9
2015-Apr-11 05:33N 22°16' E 114°28'1312.5
2015-Apr-11 04:32N 22°07' E 114°18'14 9.7
2015-Apr-11 03:03N 22°16' E 114°06'4 7.7
2015-Apr-11 02:33N 22°20' E 114°07'0 0.1
2015-Apr-11 01:28N 22°20' E 114°08'0 0.0
2015-Apr-11 00:28N 22°20' E 114°08'0 0.0
2015-Apr-10 23:19N 22°20' E 114°08'0 0.0
2015-Apr-10 22:31N 22°20' E 114°08'0 0.0
2015-Apr-10 21:31N 22°20' E 114°08'0 0.0
2015-Apr-10 20:31N 22°20' E 114°08'0 0.0
2015-Apr-10 19:19N 22°20' E 114°08'0 0.0
2015-Apr-10 18:28N 22°20' E 114°08'0 0.0
2015-Apr-10 17:31N 22°20' E 114°08'0 0.0
2015-Apr-10 16:31N 22°20' E 114°08'0 0.0
2015-Apr-10 15:28N 22°20' E 114°08'0 0.0
2015-Apr-10 14:29N 22°20' E 114°08'0 0.0
2015-Apr-10 13:31N 22°20' E 114°08'0 0.0
2015-Apr-10 12:28N 22°20' E 114°08'0 0.0
2015-Apr-10 11:31N 22°20' E 114°08'0 0.0
2015-Apr-10 10:25N 22°20' E 114°08'0 0.0
2015-Apr-10 09:22N 22°20' E 114°08'0 0.0
2015-Apr-10 08:31N 22°20' E 114°08'0 0.0
2015-Apr-10 07:28N 22°20' E 114°08'0 0.0
2015-Apr-10 06:31N 22°20' E 114°08'3 3.0
2015-Apr-10 05:34N 22°17' E 114°06'10 9.9
2015-Apr-10 04:33N 22°10' E 114°13'9 8.9
2015-Apr-10 03:32N 22°08' E 114°23'1010.4
2015-Apr-10 02:33N 21°58' E 114°26'  

Dump ship's entire track history